Time;durP1;ratioP1;P1;durP2;ratioP2;P2;SDS_P1;SDS_P2;PMS_P1;PMS_P2;Temp;Humidity;BMP_temperature;BMP_pressure;BME280_temperature;BME280_humidity;BME280_pressure;Samples;Min_cycle;Max_cycle;Signal;HPM_P1;HPM_P2
2021/01/19 00:00:28;;;;;;;13.70;3.30;;;7.00;99.90;;;;;;5066398;28;20229;-84
2021/01/19 00:02:55;;;;;;;17.47;3.60;;;7.00;99.90;;;;;;5090123;28;20209;-85
2021/01/19 00:05:22;;;;;;;11.90;3.30;;;7.00;99.90;;;;;;5083151;28;20310;-85
2021/01/19 00:07:48;;;;;;;12.27;3.37;;;7.00;99.90;;;;;;5072012;28;20682;-85
2021/01/19 00:10:16;;;;;;;13.10;3.40;;;7.00;99.90;;;;;;5082510;28;20290;-84
2021/01/19 00:12:43;;;;;;;12.77;3.50;;;7.00;99.90;;;;;;5096276;28;20237;-84
2021/01/19 00:15:10;;;;;;;13.77;3.43;;;7.00;99.90;;;;;;5075599;28;20310;-84
2021/01/19 00:17:36;;;;;;;9.00;2.90;;;7.00;99.90;;;;;;5056053;28;20230;-85
2021/01/19 00:20:08;;;;;;;12.43;3.47;;;7.00;99.90;;;;;;5074615;28;20256;-85
2021/01/19 00:22:34;;;;;;;14.80;3.43;;;7.00;99.90;;;;;;5075467;28;20246;-84
2021/01/19 00:25:01;;;;;;;14.03;3.67;;;7.00;99.90;;;;;;5075329;28;20235;-85
2021/01/19 00:27:28;;;;;;;13.50;2.90;;;7.00;99.90;;;;;;5083170;28;20206;-84
2021/01/19 00:29:54;;;;;;;12.57;3.10;;;7.00;99.90;;;;;;5096094;28;20247;-84
2021/01/19 00:32:21;;;;;;;10.83;3.20;;;7.00;99.90;;;;;;5094931;28;20234;-84
2021/01/19 00:34:47;;;;;;;14.27;3.37;;;7.00;99.90;;;;;;5081039;28;20676;-85
2021/01/19 00:37:14;;;;;;;16.03;3.40;;;7.00;99.90;;;;;;5055594;28;20686;-84
2021/01/19 00:39:41;;;;;;;16.67;3.30;;;7.00;99.90;;;;;;5091976;28;20201;-85
2021/01/19 00:42:07;;;;;;;12.57;3.40;;;7.00;99.90;;;;;;5095376;28;20202;-84
2021/01/19 00:44:36;;;;;;;11.60;2.97;;;7.00;99.90;;;;;;5095434;28;20270;-84
2021/01/19 00:47:04;;;;;;;13.20;2.90;;;7.00;99.90;;;;;;5095846;28;20190;-85
2021/01/19 00:49:30;;;;;;;10.00;3.27;;;7.00;99.90;;;;;;5095471;28;20206;-85
2021/01/19 00:51:57;;;;;;;12.87;3.07;;;7.00;99.90;;;;;;5094862;28;20247;-85
2021/01/19 00:54:24;;;;;;;12.77;3.13;;;7.00;99.90;;;;;;5091528;28;20197;-85
2021/01/19 00:56:52;;;;;;;16.00;2.90;;;7.10;99.90;;;;;;5079344;28;20214;-85
2021/01/19 00:59:18;;;;;;;10.33;2.80;;;7.10;99.90;;;;;;5075410;28;20225;-85
2021/01/19 01:01:46;;;;;;;13.70;3.10;;;7.10;99.90;;;;;;5073238;28;20193;-85
2021/01/19 01:04:12;;;;;;;12.53;2.90;;;7.10;99.90;;;;;;5081279;28;20222;-85
2021/01/19 01:06:39;;;;;;;13.03;2.90;;;7.10;99.90;;;;;;5077541;28;20275;-85
2021/01/19 01:09:07;;;;;;;13.73;2.77;;;7.20;99.90;;;;;;5083648;28;20201;-85
2021/01/19 01:11:39;;;;;;;11.37;2.83;;;7.20;99.90;;;;;;5094882;28;20270;-84
2021/01/19 01:14:07;;;;;;;15.63;3.40;;;7.20;99.90;;;;;;5077022;28;20205;-84
2021/01/19 01:16:37;;;;;;;12.93;2.67;;;7.20;99.90;;;;;;5074947;28;20613;-85
2021/01/19 01:19:04;;;;;;;17.10;3.37;;;7.30;99.90;;;;;;5070735;28;20246;-85
2021/01/19 01:21:33;;;;;;;11.83;2.80;;;7.30;99.90;;;;;;5053587;28;20294;-85
2021/01/19 01:24:00;;;;;;;10.47;2.73;;;7.30;99.90;;;;;;5054500;28;20666;-85
2021/01/19 01:26:26;;;;;;;12.10;3.00;;;7.30;99.90;;;;;;5054245;28;20792;-86
2021/01/19 01:29:09;;;;;;;10.13;2.67;;;7.30;99.90;;;;;;5054934;28;20200;-85
2021/01/19 01:31:38;;;;;;;12.73;2.33;;;7.30;99.90;;;;;;5076189;28;20226;-85
2021/01/19 01:34:04;;;;;;;10.70;2.40;;;7.30;99.90;;;;;;5095160;28;20629;-85
2021/01/19 01:36:39;;;;;;;12.03;2.87;;;7.30;99.90;;;;;;5094638;28;20259;-84
2021/01/19 01:39:08;;;;;;;11.53;2.53;;;7.40;99.90;;;;;;5094418;28;20266;-85
2021/01/19 01:41:35;;;;;;;14.37;2.47;;;7.30;99.90;;;;;;5072930;28;20210;-85
2021/01/19 01:44:02;;;;;;;15.83;2.90;;;7.40;99.90;;;;;;5054701;28;20690;-84
2021/01/19 01:46:31;;;;;;;11.87;2.83;;;7.30;99.90;;;;;;5054085;28;20702;-84
2021/01/19 01:48:58;;;;;;;13.63;2.80;;;7.30;99.90;;;;;;5054135;28;20199;-85
2021/01/19 01:51:30;;;;;;;10.47;2.30;;;7.30;99.90;;;;;;5055135;28;20561;-85
2021/01/19 01:53:57;;;;;;;11.43;2.70;;;7.30;99.90;;;;;;5054983;28;20330;-85
2021/01/19 01:56:24;;;;;;;11.93;2.63;;;7.30;99.90;;;;;;5073849;28;20256;-85
2021/01/19 01:58:52;;;;;;;12.03;2.60;;;7.30;99.90;;;;;;5059532;28;20211;-84
2021/01/19 02:01:19;;;;;;;9.33;2.60;;;7.30;99.90;;;;;;5071630;28;20615;-85
2021/01/19 02:03:47;;;;;;;14.60;3.03;;;7.30;99.90;;;;;;5074190;28;20260;-84
2021/01/19 02:06:15;;;;;;;10.63;2.50;;;7.30;99.90;;;;;;5073837;28;20640;-85
2021/01/19 02:09:02;;;;;;;12.17;2.33;;;7.40;99.90;;;;;;5076572;28;20559;-85
2021/01/19 02:11:39;;;;;;;8.40;2.27;;;7.40;99.90;;;;;;5060001;28;20278;-85
2021/01/19 02:14:11;;;;;;;12.30;2.60;;;7.40;99.90;;;;;;5079120;28;20210;-84
2021/01/19 02:16:56;;;;;;;13.03;2.57;;;7.40;99.90;;;;;;5093079;28;20292;-85
2021/01/19 02:20:08;;;;;;;11.17;2.40;;;7.40;99.90;;;;;;5072853;28;20272;-85
2021/01/19 02:23:09;;;;;;;15.10;2.53;;;7.50;99.90;;;;;;5073647;28;20225;-83
2021/01/19 02:26:04;;;;;;;10.70;2.63;;;7.40;99.90;;;;;;5053131;28;20311;-84
2021/01/19 02:28:38;;;;;;;12.10;2.30;;;7.50;99.90;;;;;;5071791;28;20287;-85
2021/01/19 02:31:20;;;;;;;15.47;2.60;;;7.50;99.90;;;;;;5073050;28;20264;-84
2021/01/19 02:33:59;;;;;;;12.33;2.20;;;7.50;99.90;;;;;;5072811;28;20194;-84
2021/01/19 02:36:33;;;;;;;11.37;2.30;;;7.50;99.90;;;;;;5073509;28;20195;-84
2021/01/19 02:39:01;;;;;;;15.23;2.87;;;7.50;99.90;;;;;;5072759;28;20202;-84
2021/01/19 02:41:28;;;;;;;11.83;2.17;;;7.50;99.90;;;;;;5085090;28;20734;-84
2021/01/19 02:44:07;;;;;;;11.60;1.67;;;7.50;99.90;;;;;;5093129;28;20204;-84
2021/01/19 02:46:35;;;;;;;14.20;2.80;;;7.60;99.90;;;;;;5053258;28;20649;-85
2021/01/19 02:49:02;;;;;;;16.07;2.50;;;7.60;99.90;;;;;;5052910;28;20321;-85
2021/01/19 02:51:36;;;;;;;12.10;2.03;;;7.60;99.90;;;;;;5053149;28;20203;-85
2021/01/19 02:54:03;;;;;;;12.00;2.00;;;7.60;99.90;;;;;;5052668;28;20278;-86
2021/01/19 02:56:37;;;;;;;10.20;2.13;;;7.60;99.90;;;;;;5053300;28;20516;-85
2021/01/19 02:59:11;;;;;;;9.97;2.10;;;7.60;99.90;;;;;;5057415;28;20208;-84
2021/01/19 03:01:49;;;;;;;10.00;2.13;;;7.60;99.90;;;;;;5086293;28;20194;-85
2021/01/19 03:04:20;;;;;;;9.30;2.10;;;7.60;99.90;;;;;;5069510;28;20196;-85
2021/01/19 03:06:49;;;;;;;9.77;1.73;;;7.60;99.90;;;;;;5066318;28;20210;-84
2021/01/19 03:09:21;;;;;;;10.33;2.17;;;7.60;99.90;;;;;;5072440;28;20199;-85
2021/01/19 03:11:49;;;;;;;12.27;2.27;;;7.60;99.90;;;;;;5072689;28;20239;-84
2021/01/19 03:14:16;;;;;;;10.20;2.40;;;7.70;99.90;;;;;;5072306;28;20200;-84
2021/01/19 03:16:45;;;;;;;12.47;2.17;;;7.60;99.90;;;;;;5073288;28;20230;-84
2021/01/19 03:19:12;;;;;;;12.07;2.00;;;7.60;99.90;;;;;;5065809;28;20327;-85
2021/01/19 03:21:40;;;;;;;9.30;1.80;;;7.70;99.90;;;;;;5063433;28;20233;-84
2021/01/19 03:24:07;;;;;;;10.70;2.17;;;7.60;99.90;;;;;;5072510;28;20200;-85
2021/01/19 03:26:34;;;;;;;9.73;2.40;;;7.60;99.90;;;;;;5072444;28;20215;-85
2021/01/19 03:29:05;;;;;;;9.83;2.17;;;7.60;99.90;;;;;;5072610;28;20199;-85
2021/01/19 03:31:31;;;;;;;10.80;1.80;;;7.60;99.90;;;;;;5072732;28;20217;-85
2021/01/19 03:33:58;;;;;;;15.67;2.17;;;7.60;99.90;;;;;;5072541;28;20202;-85
2021/01/19 03:36:24;;;;;;;10.30;2.40;;;7.70;99.90;;;;;;5072355;28;20199;-85
2021/01/19 03:38:51;;;;;;;10.57;1.97;;;7.70;99.90;;;;;;5071761;28;20241;-85
2021/01/19 03:41:32;;;;;;;14.17;2.20;;;7.60;99.90;;;;;;5052103;28;20226;-85
2021/01/19 03:44:05;;;;;;;11.10;2.27;;;7.70;99.90;;;;;;5051327;28;20237;-85
2021/01/19 03:46:31;;;;;;;10.43;1.70;;;7.70;99.90;;;;;;5086152;28;20228;-85
2021/01/19 03:48:59;;;;;;;7.83;1.50;;;7.70;99.90;;;;;;5092480;28;20230;-85
2021/01/19 03:51:26;;;;;;;10.53;2.07;;;7.70;99.90;;;;;;5091984;28;20201;-84
2021/01/19 03:53:54;;;;;;;8.27;1.53;;;7.70;99.90;;;;;;5092687;28;20206;-84
2021/01/19 03:56:23;;;;;;;11.20;2.03;;;7.70;99.90;;;;;;5092470;28;20226;-85
2021/01/19 03:58:49;;;;;;;8.03;2.00;;;7.70;99.90;;;;;;5091194;28;20195;-85
2021/01/19 04:01:16;;;;;;;10.27;1.80;;;7.70;99.90;;;;;;5062505;28;20204;-85
2021/01/19 04:03:43;;;;;;;11.33;2.20;;;7.70;99.90;;;;;;5080987;28;20204;-84
2021/01/19 04:06:10;;;;;;;11.40;2.30;;;7.70;99.90;;;;;;5091676;28;20214;-85
2021/01/19 04:08:39;;;;;;;9.73;1.77;;;7.70;99.90;;;;;;5061463;28;20226;-85
2021/01/19 04:11:07;;;;;;;8.47;1.63;;;7.70;99.90;;;;;;5077224;28;20247;-85
2021/01/19 04:13:36;;;;;;;13.13;2.23;;;7.70;99.90;;;;;;5091680;28;20200;-85
2021/01/19 04:16:03;;;;;;;9.20;1.77;;;7.70;99.90;;;;;;5087104;28;20222;-84
2021/01/19 04:18:29;;;;;;;7.40;1.70;;;7.70;99.90;;;;;;5102396;28;20291;-85
2021/01/19 04:21:09;;;;;;;11.17;2.10;;;7.70;99.90;;;;;;5078235;28;20225;-85
2021/01/19 04:23:37;;;;;;;12.00;1.90;;;7.70;99.90;;;;;;5091563;28;20239;-85
2021/01/19 04:26:03;;;;;;;10.37;1.53;;;7.70;99.90;;;;;;5071881;28;20226;-85
2021/01/19 04:28:32;;;;;;;10.20;2.30;;;7.80;99.90;;;;;;5068947;28;20727;-85
2021/01/19 04:30:58;;;;;;;8.70;1.70;;;7.80;99.90;;;;;;5072206;28;20203;-84
2021/01/19 04:33:25;;;;;;;9.37;1.73;;;7.80;99.90;;;;;;5071509;28;20207;-84
2021/01/19 04:35:52;;;;;;;11.73;1.77;;;7.80;99.90;;;;;;5071747;28;20265;-85
2021/01/19 04:38:19;;;;;;;14.47;1.80;;;7.80;99.90;;;;;;5081715;28;20202;-85
2021/01/19 04:40:45;;;;;;;11.87;2.00;;;7.80;99.90;;;;;;5072066;28;20539;-85
2021/01/19 04:43:14;;;;;;;10.07;1.50;;;7.80;99.90;;;;;;5071847;28;20191;-84
2021/01/19 04:45:43;;;;;;;14.17;2.00;;;7.80;99.90;;;;;;5067474;28;20785;-84
2021/01/19 04:48:15;;;;;;;9.73;1.83;;;7.90;99.90;;;;;;5052117;28;20204;-85
2021/01/19 04:50:41;;;;;;;11.70;1.83;;;7.90;99.90;;;;;;5051355;28;20199;-85
2021/01/19 04:53:12;;;;;;;7.07;1.70;;;7.90;99.90;;;;;;5072003;28;20244;-84
2021/01/19 04:55:53;;;;;;;11.33;2.07;;;7.90;99.90;;;;;;5068626;28;20706;-83
2021/01/19 04:58:22;;;;;;;13.63;1.97;;;7.90;99.90;;;;;;5078316;28;20705;-83
2021/01/19 05:01:04;;;;;;;9.43;1.67;;;7.90;99.90;;;;;;5074257;28;20223;-84
2021/01/19 05:03:42;;;;;;;14.17;2.30;;;7.90;99.90;;;;;;5054751;28;20207;-84
2021/01/19 05:06:17;;;;;;;7.50;1.80;;;7.90;99.90;;;;;;5055110;28;20223;-84
2021/01/19 05:08:59;;;;;;;10.50;2.30;;;8.00;99.90;;;;;;5054622;28;20203;-84
2021/01/19 05:11:32;;;;;;;9.70;1.80;;;8.00;99.90;;;;;;5054929;28;20207;-85
2021/01/19 05:14:00;;;;;;;10.73;1.97;;;8.00;99.90;;;;;;5055127;28;20287;-84
2021/01/19 05:16:31;;;;;;;6.53;1.80;;;8.00;99.90;;;;;;5054915;28;20253;-85
2021/01/19 05:18:58;;;;;;;10.50;2.07;;;8.00;99.90;;;;;;5054027;28;20240;-85
2021/01/19 05:21:25;;;;;;;9.37;1.97;;;8.00;99.90;;;;;;5054450;28;20196;-85
2021/01/19 05:23:51;;;;;;;11.27;2.10;;;8.00;99.90;;;;;;5076639;28;20571;-85
2021/01/19 05:26:19;;;;;;;10.27;2.33;;;8.00;99.90;;;;;;5054694;28;20227;-85
2021/01/19 05:28:48;;;;;;;8.17;2.17;;;8.00;99.90;;;;;;5054816;28;20287;-84
2021/01/19 05:31:23;;;;;;;9.37;1.83;;;8.00;99.90;;;;;;5058864;28;20322;-85
2021/01/19 05:34:14;;;;;;;9.67;1.80;;;8.00;99.90;;;;;;5073928;28;20670;-84
2021/01/19 05:36:46;;;;;;;7.67;2.27;;;8.10;99.90;;;;;;5058360;28;20195;-84
2021/01/19 05:39:15;;;;;;;6.83;1.87;;;8.10;99.90;;;;;;5054644;28;20252;-85
2021/01/19 05:41:44;;;;;;;5.57;1.83;;;8.10;99.90;;;;;;5072980;28;20287;-84
2021/01/19 05:44:25;;;;;;;9.00;1.60;;;8.10;99.90;;;;;;5074566;28;20209;-84
2021/01/19 05:46:59;;;;;;;8.30;1.80;;;8.10;99.90;;;;;;5067266;28;20215;-85
2021/01/19 05:49:28;;;;;;;8.97;1.90;;;8.10;99.90;;;;;;5072837;28;20207;-84
2021/01/19 05:51:58;;;;;;;7.40;1.67;;;8.20;99.90;;;;;;5092790;28;20206;-83
2021/01/19 05:54:31;;;;;;;9.53;2.37;;;8.20;99.90;;;;;;5085204;28;20231;-84
2021/01/19 05:57:04;;;;;;;9.30;2.13;;;8.20;99.90;;;;;;5073539;28;20202;-84
2021/01/19 05:59:32;;;;;;;8.60;1.97;;;8.20;99.90;;;;;;5065167;28;20199;-84
2021/01/19 06:02:03;;;;;;;10.80;2.03;;;8.20;99.90;;;;;;5063712;28;20198;-84
2021/01/19 06:04:35;;;;;;;10.57;2.00;;;8.30;99.90;;;;;;5074322;28;20209;-81
2021/01/19 06:07:04;;;;;;;11.63;2.07;;;8.30;99.90;;;;;;5061010;28;20217;-82
2021/01/19 06:09:30;;;;;;;10.17;2.07;;;8.40;99.90;;;;;;5067818;28;20239;-83
2021/01/19 06:11:58;;;;;;;10.87;1.93;;;8.40;99.90;;;;;;5073834;28;20195;-82
2021/01/19 06:14:26;;;;;;;8.73;1.97;;;8.40;99.90;;;;;;5073547;28;20713;-82
2021/01/19 06:17:04;;;;;;;8.83;1.70;;;8.40;99.90;;;;;;5084719;28;20230;-83
2021/01/19 06:19:35;;;;;;;5.67;1.60;;;8.40;99.90;;;;;;5085867;28;20234;-84
2021/01/19 06:22:06;;;;;;;9.17;1.80;;;8.40;99.90;;;;;;5064162;28;20668;-85
2021/01/19 06:24:36;;;;;;;9.60;1.67;;;8.40;99.90;;;;;;5058183;28;20209;-84
2021/01/19 06:27:04;;;;;;;7.17;1.70;;;8.40;99.90;;;;;;5066958;28;20303;-84
2021/01/19 06:29:31;;;;;;;7.30;1.40;;;8.40;99.90;;;;;;5053552;28;20200;-84
2021/01/19 06:32:03;;;;;;;6.90;2.00;;;8.30;99.90;;;;;;5062883;28;20571;-80
2021/01/19 06:34:33;;;;;;;10.90;2.50;;;8.30;99.90;;;;;;5067064;28;20188;-84
2021/01/19 06:37:01;;;;;;;9.33;2.30;;;8.30;99.90;;;;;;5073234;28;20644;-85
2021/01/19 06:39:33;;;;;;;5.97;1.40;;;8.30;99.90;;;;;;5070056;28;20540;-84
2021/01/19 06:42:18;;;;;;;5.67;1.70;;;8.30;99.90;;;;;;5067842;28;20206;-85
2021/01/19 06:44:47;;;;;;;6.97;1.60;;;8.30;99.90;;;;;;5073038;28;20210;-83
2021/01/19 06:47:15;;;;;;;8.97;1.90;;;8.30;99.90;;;;;;5073040;28;20266;-83
2021/01/19 06:49:54;;;;;;;9.77;2.20;;;8.30;99.90;;;;;;5058199;28;20204;-84
2021/01/19 06:52:22;;;;;;;11.37;2.07;;;8.30;99.90;;;;;;5062749;28;20204;-84
2021/01/19 06:55:22;;;;;;;10.50;2.27;;;8.30;99.90;;;;;;5065174;28;20351;-84
2021/01/19 06:58:11;;;;;;;8.20;2.20;;;8.20;99.90;;;;;;5065641;28;20203;-85
2021/01/19 07:00:46;;;;;;;9.40;1.90;;;8.20;99.90;;;;;;5029637;28;20209;-85
2021/01/19 07:03:38;;;;;;;11.47;2.30;;;8.20;99.90;;;;;;5030794;28;20295;-85
2021/01/19 07:06:16;;;;;;;10.87;2.33;;;8.20;99.90;;;;;;5029997;28;20223;-85
2021/01/19 07:09:19;;;;;;;8.77;1.97;;;8.20;99.90;;;;;;5028948;28;20196;-85
2021/01/19 07:12:02;;;;;;;12.30;2.40;;;8.20;99.90;;;;;;5024418;28;20202;-82
2021/01/19 07:14:44;;;;;;;10.63;2.20;;;8.20;99.90;;;;;;5027911;28;20239;-81
2021/01/19 07:17:17;;;;;;;7.27;2.50;;;8.20;99.90;;;;;;5030364;28;20616;-82
2021/01/19 07:19:48;;;;;;;9.40;3.10;;;8.10;99.90;;;;;;5028491;28;20224;-82
2021/01/19 07:22:52;;;;;;;12.33;3.97;;;8.10;99.90;;;;;;5029037;28;20291;-85
2021/01/19 07:25:22;;;;;;;8.50;3.27;;;8.10;99.90;;;;;;5029873;28;20215;-84
2021/01/19 07:27:49;;;;;;;12.10;3.07;;;8.10;99.90;;;;;;5029630;28;20737;-81
2021/01/19 07:30:17;;;;;;;8.83;2.60;;;8.10;99.90;;;;;;5029797;28;20237;-85
2021/01/19 07:32:47;;;;;;;15.60;2.97;;;8.10;99.90;;;;;;5029855;28;20226;-84
2021/01/19 07:35:15;;;;;;;11.53;2.93;;;8.10;99.90;;;;;;5030206;28;20335;-86
2021/01/19 07:37:42;;;;;;;13.47;3.17;;;8.10;99.90;;;;;;5041777;28;20672;-85
2021/01/19 07:40:27;;;;;;;11.27;4.33;;;8.10;99.90;;;;;;5089772;28;20195;-87
2021/01/19 07:42:54;;;;;;;12.37;3.90;;;8.10;99.90;;;;;;5065549;28;20196;-83
2021/01/19 07:45:31;;;;;;;7.67;3.13;;;8.10;99.90;;;;;;5069630;28;20280;-84
2021/01/19 07:48:06;;;;;;;9.77;3.13;;;8.10;99.90;;;;;;5065905;28;20667;-83
2021/01/19 07:50:40;;;;;;;9.13;2.67;;;8.10;99.90;;;;;;5064962;28;20195;-83
2021/01/19 07:53:09;;;;;;;7.10;2.30;;;8.00;99.90;;;;;;5062166;28;20212;-83
2021/01/19 07:55:43;;;;;;;10.43;2.57;;;8.10;99.90;;;;;;5066811;28;20192;-82
2021/01/19 07:58:15;;;;;;;12.30;2.60;;;8.10;99.90;;;;;;5092236;28;20200;-82
2021/01/19 08:00:44;;;;;;;11.70;2.97;;;8.10;99.90;;;;;;5065385;28;20205;-83
2021/01/19 08:03:12;;;;;;;13.30;2.90;;;8.00;99.90;;;;;;5067570;28;20199;-84
2021/01/19 08:05:38;;;;;;;11.97;3.10;;;8.00;99.90;;;;;;5061917;28;20223;-84
2021/01/19 08:08:16;;;;;;;8.53;2.47;;;8.00;99.90;;;;;;5070403;28;20566;-84
2021/01/19 08:10:53;;;;;;;9.80;3.07;;;8.00;99.90;;;;;;5072286;28;20199;-84
2021/01/19 08:13:21;;;;;;;9.67;2.87;;;8.00;99.90;;;;;;5067461;28;20215;-84
2021/01/19 08:16:00;;;;;;;10.43;2.70;;;7.90;99.90;;;;;;5074521;28;20624;-84
2021/01/19 08:18:42;;;;;;;8.37;2.60;;;7.90;99.90;;;;;;5064926;28;20271;-84
2021/01/19 08:21:09;;;;;;;9.13;2.40;;;7.90;99.90;;;;;;5097364;28;20214;-84
2021/01/19 08:23:36;;;;;;;13.97;2.93;;;7.80;99.90;;;;;;5067929;28;20257;-84
2021/01/19 08:26:08;;;;;;;12.80;3.10;;;7.80;99.90;;;;;;5062562;28;20686;-85
2021/01/19 08:28:35;;;;;;;14.67;4.67;;;7.80;99.90;;;;;;5073357;28;20673;-85
2021/01/19 08:31:12;;;;;;;10.97;3.30;;;7.80;99.90;;;;;;5075657;28;20202;-84
2021/01/19 08:33:41;;;;;;;10.97;3.47;;;7.80;99.90;;;;;;5068468;28;20321;-84
2021/01/19 08:36:08;;;;;;;16.53;3.40;;;7.70;99.90;;;;;;5063390;28;20192;-84
2021/01/19 08:38:38;;;;;;;10.43;2.83;;;7.70;99.90;;;;;;5070512;28;20230;-83
2021/01/19 08:41:16;;;;;;;8.73;3.03;;;7.70;99.90;;;;;;5067791;28;20208;-83
2021/01/19 08:43:52;;;;;;;12.33;2.97;;;7.70;99.90;;;;;;5065927;28;20200;-83
2021/01/19 08:46:19;;;;;;;11.20;3.20;;;7.70;99.90;;;;;;5068783;28;20791;-83
2021/01/19 08:48:45;;;;;;;8.87;2.63;;;7.70;99.90;;;;;;5080529;28;20664;-82
2021/01/19 08:51:22;;;;;;;13.37;3.17;;;7.70;99.90;;;;;;5067456;28;20231;-83
2021/01/19 08:53:49;;;;;;;10.80;3.17;;;7.70;99.90;;;;;;5066931;28;20229;-82
2021/01/19 08:56:21;;;;;;;10.47;3.57;;;7.80;99.90;;;;;;5059823;28;20699;-82
2021/01/19 08:58:52;;;;;;;9.93;2.80;;;7.70;99.90;;;;;;5074279;28;20236;-82
2021/01/19 09:01:19;;;;;;;10.67;2.93;;;7.80;99.90;;;;;;5075227;28;20191;-83
2021/01/19 09:03:56;;;;;;;8.73;2.73;;;7.80;99.90;;;;;;5074920;28;20214;-83
2021/01/19 09:06:23;;;;;;;6.90;2.63;;;7.80;99.90;;;;;;5074149;28;20250;-81
2021/01/19 09:08:56;;;;;;;13.63;3.00;;;7.80;99.90;;;;;;5075037;28;20242;-81
2021/01/19 09:11:30;;;;;;;13.00;3.07;;;7.80;99.90;;;;;;5083138;28;20202;-83
2021/01/19 09:14:06;;;;;;;10.77;3.00;;;7.90;99.90;;;;;;5056530;28;20235;-83
2021/01/19 09:16:33;;;;;;;9.67;3.03;;;7.90;99.90;;;;;;5073082;28;20194;-83
2021/01/19 09:19:04;;;;;;;10.53;2.80;;;8.00;99.90;;;;;;5073861;28;20238;-83
2021/01/19 09:21:31;;;;;;;9.37;2.83;;;8.00;99.90;;;;;;5080854;28;20198;-83
2021/01/19 09:23:57;;;;;;;12.67;3.10;;;8.00;99.90;;;;;;5073397;28;20192;-82
2021/01/19 09:26:25;;;;;;;10.73;3.10;;;8.10;99.90;;;;;;5065297;28;20214;-84
2021/01/19 09:28:52;;;;;;;10.47;2.93;;;8.10;99.90;;;;;;5062815;28;20271;-83
2021/01/19 09:31:20;;;;;;;14.60;3.17;;;8.20;99.90;;;;;;5072572;28;20279;-83
2021/01/19 09:33:48;;;;;;;9.33;3.07;;;8.20;99.90;;;;;;5080116;28;20222;-84
2021/01/19 09:36:16;;;;;;;10.63;3.63;;;8.20;99.90;;;;;;5080999;28;20226;-84
2021/01/19 09:38:43;;;;;;;11.77;2.97;;;8.30;99.90;;;;;;5070747;28;20702;-84
2021/01/19 09:41:15;;;;;;;12.53;3.00;;;8.20;99.90;;;;;;5058022;28;20246;-84
2021/01/19 09:43:48;;;;;;;9.90;3.17;;;8.20;99.90;;;;;;5061499;28;20195;-83
2021/01/19 09:46:17;;;;;;;10.27;2.80;;;8.20;99.90;;;;;;5062561;28;20222;-83
2021/01/19 09:48:47;;;;;;;13.50;3.47;;;8.20;99.90;;;;;;5067411;28;20201;-84
2021/01/19 09:51:15;;;;;;;14.37;3.57;;;8.20;99.90;;;;;;5081294;28;20700;-84
2021/01/19 09:53:41;;;;;;;10.40;2.83;;;8.10;99.90;;;;;;5072585;27;20291;-83
2021/01/19 09:56:15;;;;;;;11.73;3.40;;;8.10;99.90;;;;;;5070585;28;20195;-83
2021/01/19 09:58:43;;;;;;;13.87;3.73;;;8.20;99.90;;;;;;5055286;28;20195;-83
2021/01/19 10:01:20;;;;;;;11.27;3.23;;;8.30;99.90;;;;;;5066973;28;20222;-84
2021/01/19 10:03:47;;;;;;;11.20;3.47;;;8.40;99.90;;;;;;5064427;28;20243;-84
2021/01/19 10:06:19;;;;;;;10.73;3.40;;;8.40;99.90;;;;;;5057702;28;20401;-84
2021/01/19 10:08:50;;;;;;;13.23;4.20;;;8.50;99.90;;;;;;5066495;28;20204;-83
2021/01/19 10:11:28;;;;;;;16.83;3.87;;;8.50;99.90;;;;;;5057959;28;20192;-83
2021/01/19 10:13:55;;;;;;;11.73;3.87;;;8.60;99.90;;;;;;5063685;28;20202;-84
2021/01/19 10:16:27;;;;;;;13.63;4.00;;;8.70;99.90;;;;;;5066757;28;20200;-84
2021/01/19 10:18:54;;;;;;;10.77;3.90;;;8.80;99.90;;;;;;5071111;28;20260;-83
2021/01/19 10:21:31;;;;;;;10.17;4.53;;;8.70;99.90;;;;;;5070308;28;20736;-83
2021/01/19 10:23:58;;;;;;;12.83;4.40;;;8.60;99.90;;;;;;5073381;28;20195;-83
2021/01/19 10:26:29;;;;;;;11.03;5.50;;;8.60;99.90;;;;;;5057278;28;20251;-84
2021/01/19 10:28:58;;;;;;;14.43;5.40;;;8.60;99.90;;;;;;5072679;28;20206;-83
2021/01/19 10:31:27;;;;;;;14.97;5.20;;;8.70;99.90;;;;;;5060919;28;20223;-84
2021/01/19 10:34:01;;;;;;;16.07;4.70;;;8.70;99.90;;;;;;5097400;28;20231;-84
2021/01/19 10:36:29;;;;;;;15.97;5.03;;;8.70;99.90;;;;;;5075837;28;20292;-84
2021/01/19 10:39:03;;;;;;;9.13;4.23;;;8.80;99.90;;;;;;5074250;28;20227;-83
2021/01/19 10:41:30;;;;;;;9.73;3.97;;;8.80;99.90;;;;;;5076434;28;20210;-82
2021/01/19 10:43:58;;;;;;;10.93;4.60;;;8.70;99.90;;;;;;5078781;28;20227;-83
2021/01/19 10:46:26;;;;;;;11.97;4.40;;;8.70;99.90;;;;;;5077507;28;20691;-84
2021/01/19 10:49:09;;;;;;;14.33;4.27;;;8.70;99.90;;;;;;5093478;28;20263;-83
2021/01/19 10:51:36;;;;;;;13.33;4.67;;;8.70;99.90;;;;;;5080637;28;20225;-83
2021/01/19 10:54:11;;;;;;;15.37;4.83;;;8.70;99.90;;;;;;5059862;28;20241;-83
2021/01/19 10:56:40;;;;;;;9.37;4.47;;;8.80;99.90;;;;;;5069745;28;20199;-84
2021/01/19 10:59:08;;;;;;;15.27;4.77;;;8.70;99.90;;;;;;5076011;28;20627;-82
2021/01/19 11:01:35;;;;;;;15.57;5.80;;;8.80;99.90;;;;;;5078872;28;20245;-81
2021/01/19 11:04:02;;;;;;;15.93;6.60;;;8.80;99.90;;;;;;5071022;28;20226;-82
2021/01/19 11:06:34;;;;;;;14.37;4.67;;;8.90;99.90;;;;;;5064153;28;20774;-82
2021/01/19 11:09:01;;;;;;;10.63;4.03;;;9.00;99.90;;;;;;5065680;28;20251;-82
2021/01/19 11:11:27;;;;;;;12.90;4.30;;;8.90;99.90;;;;;;5071953;28;20277;-82
2021/01/19 11:13:59;;;;;;;10.47;4.70;;;9.00;99.90;;;;;;5070962;28;20205;-82
2021/01/19 11:16:31;;;;;;;14.43;4.60;;;9.10;99.90;;;;;;5095741;28;20286;-82
2021/01/19 11:19:02;;;;;;;11.87;4.87;;;9.10;99.90;;;;;;5068233;28;20336;-83
2021/01/19 11:21:30;;;;;;;12.73;4.77;;;9.10;99.90;;;;;;5066134;28;20668;-82
2021/01/19 11:23:58;;;;;;;11.03;5.17;;;9.00;99.90;;;;;;5078476;28;20196;-82
2021/01/19 11:26:25;;;;;;;17.77;4.87;;;9.00;99.90;;;;;;5067123;28;20225;-82
2021/01/19 11:28:52;;;;;;;12.73;5.27;;;9.10;99.90;;;;;;5053717;28;20727;-82
2021/01/19 11:31:20;;;;;;;10.87;5.00;;;9.10;99.90;;;;;;5072446;28;20228;-83
2021/01/19 11:33:47;;;;;;;13.53;5.00;;;9.10;99.90;;;;;;5056195;28;20281;-84
2021/01/19 11:36:21;;;;;;;14.00;4.93;;;9.20;99.90;;;;;;5069066;28;20697;-83
2021/01/19 11:38:47;;;;;;;9.00;4.23;;;9.10;99.90;;;;;;5062284;28;20605;-82
2021/01/19 11:41:22;;;;;;;12.17;5.10;;;9.10;99.90;;;;;;5067679;28;20250;-83
2021/01/19 11:43:49;;;;;;;12.13;3.90;;;9.10;99.90;;;;;;5068798;28;20636;-84
2021/01/19 11:46:20;;;;;;;11.73;4.90;;;9.10;99.90;;;;;;5090386;28;20249;-83
2021/01/19 11:48:47;;;;;;;12.00;4.70;;;9.20;99.90;;;;;;5085338;28;20680;-84
2021/01/19 11:51:18;;;;;;;8.30;4.17;;;9.10;99.90;;;;;;5063203;28;20620;-82
2021/01/19 11:53:47;;;;;;;13.40;4.90;;;9.10;99.90;;;;;;5075403;28;20235;-82
2021/01/19 11:56:14;;;;;;;10.20;4.17;;;9.10;99.90;;;;;;5080477;28;20569;-82
2021/01/19 11:58:41;;;;;;;16.03;7.33;;;9.10;99.90;;;;;;5068772;28;20225;-83
2021/01/19 12:01:09;;;;;;;15.80;6.20;;;9.10;99.90;;;;;;5062984;28;20286;-83
2021/01/19 12:03:36;;;;;;;13.53;5.40;;;9.10;99.90;;;;;;5064245;28;20204;-82
2021/01/19 12:06:04;;;;;;;14.83;4.70;;;9.10;99.90;;;;;;5077300;28;20248;-82
2021/01/19 12:08:30;;;;;;;11.90;4.93;;;9.20;99.90;;;;;;5075060;28;20728;-83
2021/01/19 12:10:57;;;;;;;13.07;5.07;;;9.30;99.90;;;;;;5061384;28;20229;-83
2021/01/19 12:13:24;;;;;;;8.93;4.63;;;9.20;99.90;;;;;;5075362;28;20649;-82
2021/01/19 12:15:51;;;;;;;10.40;4.50;;;9.20;99.90;;;;;;5076555;28;20194;-82
2021/01/19 12:18:17;;;;;;;9.33;4.37;;;9.10;99.90;;;;;;5073125;28;20230;-83
2021/01/19 12:20:44;;;;;;;10.37;4.60;;;9.20;99.90;;;;;;5073767;28;20254;-83
2021/01/19 12:23:11;;;;;;;11.30;4.73;;;9.20;99.90;;;;;;5069917;28;20231;-83
2021/01/19 12:25:38;;;;;;;12.03;4.93;;;9.20;99.90;;;;;;5065934;28;20255;-81
2021/01/19 12:28:04;;;;;;;10.00;4.50;;;9.20;99.90;;;;;;5070982;28;20249;-83
2021/01/19 12:30:31;;;;;;;12.30;4.80;;;9.20;99.90;;;;;;5070318;28;20231;-82
2021/01/19 12:32:57;;;;;;;9.20;4.67;;;9.10;99.90;;;;;;5066686;28;20223;-83
2021/01/19 12:35:24;;;;;;;13.77;5.10;;;9.10;99.90;;;;;;5066289;28;20234;-83
2021/01/19 12:37:54;;;;;;;12.40;4.73;;;9.10;99.90;;;;;;5069443;28;20227;-83
2021/01/19 12:40:21;;;;;;;13.00;5.20;;;9.10;99.90;;;;;;5068186;28;20231;-83
2021/01/19 12:42:49;;;;;;;13.47;4.90;;;9.20;99.90;;;;;;5066010;28;20677;-83
2021/01/19 12:45:16;;;;;;;10.47;4.83;;;9.20;99.90;;;;;;5069183;28;20233;-83
2021/01/19 12:47:42;;;;;;;10.80;5.17;;;9.20;99.90;;;;;;5082597;28;20198;-83
2021/01/19 12:50:10;;;;;;;12.90;5.50;;;9.20;99.90;;;;;;5060647;28;20270;-83
2021/01/19 12:52:36;;;;;;;13.13;5.17;;;9.30;99.90;;;;;;5066963;28;20242;-83
2021/01/19 12:55:03;;;;;;;10.90;4.67;;;9.30;99.90;;;;;;5081118;28;20226;-84
2021/01/19 12:57:30;;;;;;;13.07;4.90;;;9.20;99.90;;;;;;5059754;28;20227;-83
2021/01/19 12:59:57;;;;;;;10.13;4.60;;;9.30;99.90;;;;;;5073855;28;20230;-83
2021/01/19 13:02:23;;;;;;;10.43;5.07;;;9.30;99.90;;;;;;5069582;28;20229;-83
2021/01/19 13:04:50;;;;;;;11.40;4.70;;;9.30;99.90;;;;;;5077769;28;20635;-83
2021/01/19 13:07:16;;;;;;;10.97;4.53;;;9.20;99.90;;;;;;5073704;28;20252;-83